Time;durP1;ratioP1;P1;durP2;ratioP2;P2;SDS_P1;SDS_P2;PMS_P1;PMS_P2;Temp;Humidity;BMP_temperature;BMP_pressure;BME280_temperature;BME280_humidity;BME280_pressure;Samples;Min_cycle;Max_cycle;Signal;HPM_P1;HPM_P2
2023/01/28 00:00:08;;;;;;;5.60;5.10;;;;;;;4.45;51.65;102246.72;685659;28;1048;-82
2023/01/28 00:00:29;;;;;;;5.50;5.00;;;;;;;4.49;51.87;102253.94;686022;28;962;-81
2023/01/28 00:00:50;;;;;;;5.40;4.90;;;;;;;4.49;51.54;102251.38;686106;28;788;-81
2023/01/28 00:01:13;;;;;;;5.30;4.80;;;;;;;4.50;51.74;102255.75;682746;29;1286;-81
2023/01/28 00:01:34;;;;;;;5.07;4.68;;;;;;;4.46;51.94;102243.34;685581;28;1001;-82
2023/01/28 00:01:59;;;;;;;5.28;4.80;;;;;;;4.47;51.84;102251.25;685620;28;1135;-82
2023/01/28 00:02:19;;;;;;;5.20;4.70;;;;;;;4.49;51.70;102248.78;688211;28;1283;-81
2023/01/28 00:02:57;;;;;;;5.68;4.70;;;;;;;4.45;51.92;102241.56;682617;29;1063;-81
2023/01/28 00:03:18;;;;;;;5.30;4.50;;;;;;;4.52;51.82;102259.34;685429;28;1906;-82
2023/01/28 00:03:39;;;;;;;6.00;4.88;;;;;;;4.41;52.01;102239.53;688336;28;1008;-82
2023/01/28 00:04:00;;;;;;;5.63;5.03;;;;;;;4.43;51.99;102245.72;690929;28;1080;-82
2023/01/28 00:04:20;;;;;;;5.80;5.20;;;;;;;4.46;51.57;102249.44;690821;28;1178;-82
2023/01/28 00:04:41;;;;;;;5.40;4.90;;;;;;;4.40;51.89;102245.50;688192;28;1151;-82
2023/01/28 00:05:08;;;;;;;5.80;5.20;;;;;;;4.40;51.94;102248.06;685661;28;1017;-82
2023/01/28 00:05:31;;;;;;;5.70;5.07;;;;;;;4.37;52.06;102234.09;685530;28;1128;-81
2023/01/28 00:05:53;;;;;;;5.40;4.90;;;;;;;4.43;51.82;102248.31;691245;28;812;-81
2023/01/28 00:06:14;;;;;;;5.65;5.15;;;;;;;4.47;51.48;102260.69;695203;28;953;-81
2023/01/28 00:06:34;;;;;;;5.63;5.03;;;;;;;4.43;51.46;102253.47;693668;28;981;-82
2023/01/28 00:06:55;;;;;;;5.65;5.07;;;;;;;4.40;51.90;102245.50;696016;28;764;-82
2023/01/28 00:07:18;;;;;;;5.60;4.88;;;;;;;4.34;51.81;102249.41;693495;28;1494;-82
2023/01/28 00:07:39;;;;;;;5.22;4.72;;;;;;;4.33;51.99;102246.69;684510;28;1331;-82
2023/01/28 00:07:59;;;;;;;6.60;5.13;;;;;;;4.35;52.01;102251.19;688333;28;1166;-82
2023/01/28 00:08:20;;;;;;;7.30;5.43;;;;;;;4.33;52.09;102242.44;688094;28;1080;-82
2023/01/28 00:08:41;;;;;;;8.73;6.03;;;;;;;4.46;51.84;102258.88;685499;28;1386;-82
2023/01/28 00:09:02;;;;;;;8.18;6.43;;;;;;;4.40;51.54;102248.06;685537;28;931;-82
2023/01/28 00:09:22;;;;;;;9.90;7.15;;;;;;;4.40;51.88;102241.19;685586;28;1070;-82
2023/01/28 00:09:43;;;;;;;9.60;7.17;;;;;;;4.41;51.98;102249.88;682818;29;1256;-82
2023/01/28 00:10:04;;;;;;;10.70;7.20;;;;;;;4.45;51.73;102255.41;685502;28;999;-81
2023/01/28 00:10:24;;;;;;;9.65;6.90;;;;;;;4.42;51.89;102251.66;690869;28;1210;-82
2023/01/28 00:10:45;;;;;;;10.00;7.18;;;;;;;4.51;51.82;102263.63;691047;28;1069;-82
2023/01/28 00:11:09;;;;;;;8.88;6.95;;;;;;;4.42;51.83;102254.25;685422;28;1007;-82
2023/01/28 00:11:29;;;;;;;9.38;6.88;;;;;;;4.36;51.82;102240.06;685496;28;1892;-82
2023/01/28 00:11:50;;;;;;;8.73;6.45;;;;;;;4.42;52.07;102246.50;686255;28;1277;-82
2023/01/28 00:12:10;;;;;;;8.63;6.22;;;;;;;4.39;52.02;102242.00;684757;28;1231;-82
2023/01/28 00:12:31;;;;;;;8.23;6.00;;;;;;;4.41;51.53;102244.72;688219;28;1004;-82
2023/01/28 00:12:51;;;;;;;8.45;5.88;;;;;;;4.42;51.92;102246.50;688251;28;816;-81
2023/01/28 00:13:15;;;;;;;8.52;6.10;;;;;;;4.43;51.73;102250.88;687995;28;1371;-82
2023/01/28 00:13:36;;;;;;;10.40;6.38;;;;;;;4.41;51.82;102248.19;688188;28;1181;-82
2023/01/28 00:13:56;;;;;;;12.05;6.80;;;;;;;4.40;52.01;102248.06;688318;28;839;-81
2023/01/28 00:14:17;;;;;;;11.02;6.30;;;;;;;4.37;51.61;102248.72;685491;28;1198;-81
2023/01/28 00:14:38;;;;;;;9.20;6.03;;;;;;;4.37;51.82;102244.44;690818;28;1312;-82
2023/01/28 00:14:59;;;;;;;8.35;5.75;;;;;;;4.36;51.91;102237.47;691008;28;1173;-82
2023/01/28 00:15:19;;;;;;;8.40;6.00;;;;;;;4.36;51.87;102249.53;688046;28;1247;-82
2023/01/28 00:15:41;;;;;;;7.03;5.65;;;;;;;4.40;51.63;102248.06;685531;28;1009;-82
2023/01/28 00:16:04;;;;;;;6.20;5.60;;;;;;;4.34;51.91;102244.22;690910;28;1147;-82
2023/01/28 00:16:26;;;;;;;5.80;5.30;;;;;;;4.37;52.06;102249.63;685656;28;874;-81
2023/01/28 00:16:47;;;;;;;5.80;5.30;;;;;;;4.37;51.77;102235.81;688242;28;1248;-82
2023/01/28 00:17:07;;;;;;;5.90;5.40;;;;;;;4.50;51.66;102258.34;690731;28;1171;-82
2023/01/28 00:17:28;;;;;;;6.00;5.47;;;;;;;4.38;51.95;102232.44;688205;28;1021;-82
2023/01/28 00:17:49;;;;;;;7.00;5.45;;;;;;;4.42;52.05;102247.38;691049;28;1366;-81
2023/01/28 00:18:09;;;;;;;6.72;5.15;;;;;;;4.41;51.87;102242.13;693457;28;1239;-82
2023/01/28 00:18:32;;;;;;;6.90;5.20;;;;;;;4.44;51.73;102239.75;693713;28;1066;-81
2023/01/28 00:18:53;;;;;;;5.80;5.20;;;;;;;4.45;52.00;102246.72;688290;28;823;-81
2023/01/28 00:19:14;;;;;;;5.78;5.18;;;;;;;4.44;51.38;102239.75;685445;28;1344;-81
2023/01/28 00:19:49;;;;;;;5.90;5.17;;;;;;;4.46;51.80;102251.09;682853;29;764;-81
2023/01/28 00:20:09;;;;;;;6.65;5.00;;;;;;;4.46;51.69;102243.34;685335;28;1034;-82
2023/01/28 00:20:30;;;;;;;5.53;4.80;;;;;;;4.45;51.60;102251.91;685562;28;1152;-81
2023/01/28 00:21:09;;;;;;;5.90;4.80;;;;;;;4.38;51.99;102233.31;685572;28;1057;-82
2023/01/28 00:21:29;;;;;;;5.40;4.90;;;;;;;4.40;51.71;102238.63;680057;28;1337;-81
2023/01/28 00:21:50;;;;;;;5.68;5.15;;;;;;;4.47;51.67;102260.69;688147;28;1301;-81
2023/01/28 00:22:10;;;;;;;5.70;5.20;;;;;;;4.41;51.33;102245.59;687900;28;1204;-82
2023/01/28 00:22:31;;;;;;;5.53;5.03;;;;;;;4.44;51.89;102243.25;690971;28;1123;-82
2023/01/28 00:22:52;;;;;;;5.40;4.90;;;;;;;4.40;51.63;102240.31;682954;29;931;-82
2023/01/28 00:23:12;;;;;;;5.25;4.57;;;;;;;4.45;52.04;102255.41;688131;28;1914;-82
2023/01/28 00:23:36;;;;;;;5.55;4.78;;;;;;;4.41;51.49;102253.34;685538;28;1102;-81
2023/01/28 00:23:56;;;;;;;5.20;4.70;;;;;;;4.37;51.90;102249.63;688446;28;866;-82
2023/01/28 00:24:17;;;;;;;5.15;4.65;;;;;;;4.44;51.87;102255.28;687955;28;1164;-81
2023/01/28 00:24:37;;;;;;;4.90;4.50;;;;;;;4.45;51.48;102257.06;688303;28;1224;-81
2023/01/28 00:24:58;;;;;;;4.90;4.50;;;;;;;4.40;51.69;102250.66;685389;28;1085;-82
2023/01/28 00:25:22;;;;;;;4.80;4.40;;;;;;;4.43;51.46;102256.06;688014;28;1194;-81
2023/01/28 00:25:43;;;;;;;4.80;4.40;;;;;;;4.45;51.94;102257.06;685380;28;1137;-81
2023/01/28 00:26:10;;;;;;;4.95;4.55;;;;;;;4.46;51.81;102251.09;688155;28;1084;-81
2023/01/28 00:26:32;;;;;;;5.18;4.68;;;;;;;4.43;51.94;102248.31;688167;28;969;-82
2023/01/28 00:26:53;;;;;;;4.97;4.47;;;;;;;4.46;51.81;102253.69;682935;29;1167;-82
2023/01/28 00:27:14;;;;;;;5.13;4.50;;;;;;;4.42;51.69;102251.66;682688;28;1149;-82
2023/01/28 00:27:34;;;;;;;5.10;4.60;;;;;;;4.43;51.62;102250.88;685542;28;1224;-82
2023/01/28 00:27:55;;;;;;;4.90;4.40;;;;;;;4.42;52.04;102249.09;688252;28;935;-81
2023/01/28 00:28:16;;;;;;;4.97;4.47;;;;;;;4.47;51.78;102250.34;688076;28;1157;-82
2023/01/28 00:28:37;;;;;;;6.03;4.90;;;;;;;4.54;51.82;102265.53;688085;28;1196;-81
2023/01/28 00:28:58;;;;;;;5.75;4.80;;;;;;;4.46;51.68;102249.44;690984;28;1150;-82
2023/01/28 00:29:18;;;;;;;5.50;4.90;;;;;;;4.44;51.62;102244.94;688092;28;1000;-82
2023/01/28 00:29:39;;;;;;;5.00;4.60;;;;;;;4.46;51.95;102245.94;688237;28;1248;-82
2023/01/28 00:30:00;;;;;;;5.32;4.80;;;;;;;4.44;51.61;102247.50;688191;28;1157;-82
2023/01/28 00:30:20;;;;;;;6.00;4.70;;;;;;;4.54;51.69;102262.94;682737;28;1109;-81
2023/01/28 00:30:41;;;;;;;6.37;4.87;;;;;;;4.44;51.82;102242.34;682815;28;945;-82
2023/01/28 00:31:09;;;;;;;5.53;4.72;;;;;;;4.51;51.70;102257.53;688143;28;1182;-81
2023/01/28 00:31:30;;;;;;;5.30;4.80;;;;;;;4.52;51.93;102267.09;688029;28;1342;-81
2023/01/28 00:31:51;;;;;;;5.20;4.70;;;;;;;4.54;51.82;102267.22;688261;28;779;-82
2023/01/28 00:32:11;;;;;;;5.30;4.80;;;;;;;4.47;51.90;102260.69;688022;28;1465;-82
2023/01/28 00:32:32;;;;;;;5.60;4.87;;;;;;;4.44;51.78;102252.69;689854;28;1131;-82
2023/01/28 00:32:53;;;;;;;6.97;5.13;;;;;;;4.49;51.89;102261.72;688264;28;940;-82
2023/01/28 00:33:14;;;;;;;7.57;5.18;;;;;;;4.45;51.89;102251.91;690717;28;1268;-82
2023/01/28 00:33:35;;;;;;;7.18;5.10;;;;;;;4.48;51.89;102259.91;685301;28;1273;-82
2023/01/28 00:33:56;;;;;;;5.95;5.10;;;;;;;4.46;51.94;102256.28;688275;28;1150;-82
2023/01/28 00:34:17;;;;;;;5.57;4.97;;;;;;;4.45;51.91;102251.91;690703;28;967;-82
2023/01/28 00:34:37;;;;;;;5.40;4.90;;;;;;;4.49;51.73;102259.13;691024;28;1187;-82
2023/01/28 00:35:01;;;;;;;5.20;4.80;;;;;;;4.49;52.01;102254.84;688090;28;1317;-81
2023/01/28 00:35:21;;;;;;;5.05;4.65;;;;;;;4.42;52.10;102247.38;685391;28;1057;-82
2023/01/28 00:35:42;;;;;;;5.13;4.73;;;;;;;4.46;51.69;102256.28;688134;28;1091;-82
2023/01/28 00:36:05;;;;;;;5.70;5.20;;;;;;;4.47;51.88;102250.34;687916;28;997;-82
2023/01/28 00:36:26;;;;;;;6.28;5.57;;;;;;;4.47;52.00;102242.59;688109;28;855;-81
2023/01/28 00:36:56;;;;;;;6.25;5.60;;;;;;;4.48;51.86;102252.16;691001;28;945;-82
2023/01/28 00:37:17;;;;;;;6.80;5.30;;;;;;;4.44;51.85;102245.84;690575;28;1455;-82
2023/01/28 00:37:38;;;;;;;5.80;5.00;;;;;;;4.44;51.74;102244.94;682667;29;1312;-82
2023/01/28 00:37:59;;;;;;;5.90;4.80;;;;;;;4.48;51.99;102254.75;682822;29;1149;-82
2023/01/28 00:38:22;;;;;;;5.43;4.93;;;;;;;4.46;52.15;102248.53;682845;29;1144;-82
2023/01/28 00:38:42;;;;;;;5.50;5.00;;;;;;;4.55;51.81;102259.59;685417;28;1243;-82
2023/01/28 00:39:04;;;;;;;5.78;5.18;;;;;;;4.48;51.72;102253.03;685436;28;1097;-82
2023/01/28 00:39:26;;;;;;;5.90;5.30;;;;;;;4.48;52.12;102244.41;690197;28;1384;-82
2023/01/28 00:39:47;;;;;;;6.20;5.47;;;;;;;4.49;51.93;102259.13;691020;28;901;-82
2023/01/28 00:40:08;;;;;;;5.90;5.30;;;;;;;4.52;51.91;102268.00;685374;28;1145;-82
2023/01/28 00:40:30;;;;;;;5.78;5.28;;;;;;;4.46;51.92;102254.59;685672;28;1370;-82
2023/01/28 00:40:51;;;;;;;5.63;5.13;;;;;;;4.46;51.59;102249.44;688231;28;1353;-82
2023/01/28 00:41:29;;;;;;;5.80;5.30;;;;;;;4.46;52.21;102248.53;690672;28;1095;-82
2023/01/28 00:41:52;;;;;;;5.80;5.30;;;;;;;4.42;52.40;102241.34;688048;28;1330;-82
2023/01/28 00:42:13;;;;;;;5.43;4.93;;;;;;;4.42;52.13;102243.91;682688;28;1022;-81
2023/01/28 00:42:33;;;;;;;5.40;4.90;;;;;;;4.46;52.30;102249.44;682876;29;1101;-81
2023/01/28 00:42:54;;;;;;;5.40;4.90;;;;;;;4.46;52.01;102248.53;682963;28;1143;-82
2023/01/28 00:43:15;;;;;;;5.60;5.10;;;;;;;4.46;51.82;102248.53;685330;28;1906;-82
2023/01/28 00:43:37;;;;;;;5.80;5.20;;;;;;;4.50;52.09;102253.16;688119;28;981;-82
2023/01/28 00:43:57;;;;;;;5.97;5.45;;;;;;;4.46;51.94;102256.28;679932;28;2038;-82
2023/01/28 00:44:19;;;;;;;5.80;5.30;;;;;;;4.42;51.99;102243.91;688004;28;1065;-82
2023/01/28 00:44:39;;;;;;;5.80;5.30;;;;;;;4.42;52.35;102247.38;691006;28;999;-82
2023/01/28 00:45:00;;;;;;;5.90;5.30;;;;;;;4.43;52.40;102254.38;693979;28;1353;-82
2023/01/28 00:45:21;;;;;;;5.95;5.35;;;;;;;4.48;52.14;102262.50;694098;28;1190;-82
2023/01/28 00:45:41;;;;;;;5.80;5.20;;;;;;;4.44;52.30;102247.50;688672;28;986;-82
2023/01/28 00:46:03;;;;;;;5.57;5.00;;;;;;;4.48;52.16;102262.50;685979;28;1108;-82
2023/01/28 00:46:26;;;;;;;5.95;5.20;;;;;;;4.44;52.46;102252.69;689680;28;831;-82
2023/01/28 00:46:46;;;;;;;5.95;5.30;;;;;;;4.41;52.24;102252.47;692078;28;803;-81
2023/01/28 00:47:07;;;;;;;6.22;5.35;;;;;;;4.40;52.24;102248.97;688454;28;1329;-82
2023/01/28 00:47:28;;;;;;;6.00;5.38;;;;;;;4.45;52.49;102249.31;688628;28;983;-82
2023/01/28 00:47:48;;;;;;;6.20;5.60;;;;;;;4.43;52.16;102249.22;686796;28;830;-82
2023/01/28 00:48:09;;;;;;;6.20;5.60;;;;;;;4.45;52.38;102263.16;688010;28;1093;-82
2023/01/28 00:48:51;;;;;;;6.45;5.63;;;;;;;4.49;52.27;102265.19;683584;28;1390;-82
2023/01/28 00:49:12;;;;;;;6.35;5.60;;;;;;;4.41;52.42;102250.75;685667;28;1471;-82
2023/01/28 00:49:35;;;;;;;6.47;5.40;;;;;;;4.38;52.35;102255.69;685475;28;1229;-82
2023/01/28 00:49:56;;;;;;;6.32;5.20;;;;;;;4.36;52.34;102247.81;683323;28;941;-81
2023/01/28 00:50:16;;;;;;;6.35;5.35;;;;;;;4.43;52.16;102261.22;688502;28;1475;-82
2023/01/28 00:50:38;;;;;;;5.95;5.35;;;;;;;4.41;52.53;102260.22;685984;28;1085;-82
2023/01/28 00:50:58;;;;;;;5.72;5.15;;;;;;;4.35;52.62;102256.38;688417;28;951;-81
2023/01/28 00:51:20;;;;;;;5.45;4.95;;;;;;;4.36;52.48;102249.53;688556;28;1209;-82
2023/01/28 00:51:42;;;;;;;5.38;4.88;;;;;;;4.38;52.38;102250.53;683178;29;1092;-82
2023/01/28 00:52:03;;;;;;;5.60;5.00;;;;;;;4.43;52.29;102253.47;688527;28;1276;-82
2023/01/28 00:52:24;;;;;;;5.63;5.03;;;;;;;4.35;52.21;102242.56;694149;28;1338;-82
2023/01/28 00:52:46;;;;;;;7.18;5.38;;;;;;;4.38;52.17;102251.41;688661;28;1286;-82
2023/01/28 00:53:06;;;;;;;7.70;5.38;;;;;;;4.36;52.29;102252.09;685584;28;1165;-82
2023/01/28 00:53:27;;;;;;;7.70;5.60;;;;;;;4.38;52.54;102254.00;690573;28;1050;-82
2023/01/28 00:53:48;;;;;;;6.47;5.57;;;;;;;4.35;52.55;102256.38;685920;28;1133;-82
2023/01/28 00:54:12;;;;;;;7.30;5.75;;;;;;;4.33;52.20;102247.59;685847;28;1118;-82
2023/01/28 00:54:32;;;;;;;7.13;5.35;;;;;;;4.36;52.19;102263.31;684124;28;927;-81
2023/01/28 00:54:54;;;;;;;7.00;5.32;;;;;;;4.32;52.55;102256.13;686916;28;846;-82
2023/01/28 00:55:14;;;;;;;5.67;5.07;;;;;;;4.34;52.37;102259.72;688572;28;1124;-82
2023/01/28 00:55:36;;;;;;;6.00;5.40;;;;;;;4.34;52.03;102251.97;692214;28;1143;-81
2023/01/28 00:55:57;;;;;;;5.90;5.35;;;;;;;4.31;52.22;102254.34;688728;28;1241;-82
2023/01/28 00:56:18;;;;;;;5.60;5.10;;;;;;;4.36;52.11;102258.16;688575;28;970;-81
2023/01/28 00:56:38;;;;;;;5.57;4.97;;;;;;;4.34;52.44;102262.31;685875;28;994;-81
2023/01/28 00:56:59;;;;;;;6.00;5.00;;;;;;;4.37;52.37;102259.97;683185;29;1080;-81
2023/01/28 00:57:20;;;;;;;8.17;5.70;;;;;;;4.37;52.04;102254.78;683298;28;1183;-82
2023/01/28 00:57:40;;;;;;;7.90;5.70;;;;;;;4.34;52.17;102254.56;683281;29;1013;-81
2023/01/28 00:58:01;;;;;;;8.33;5.70;;;;;;;4.34;52.40;102254.56;685966;28;1138;-82
2023/01/28 00:58:23;;;;;;;6.97;5.03;;;;;;;4.37;52.38;102253.91;691242;28;1278;-82
2023/01/28 00:58:59;;;;;;;6.88;5.00;;;;;;;4.41;52.47;102265.38;691371;28;1052;-82
2023/01/28 00:59:19;;;;;;;5.85;5.10;;;;;;;4.42;52.15;102269.78;690676;28;1339;-82
2023/01/28 00:59:41;;;;;;;8.00;5.40;;;;;;;4.38;52.35;102258.28;688640;28;1311;-81
2023/01/28 01:00:03;;;;;;;8.10;5.38;;;;;;;4.36;52.50;102263.31;680570;29;1249;-81
2023/01/28 01:00:24;;;;;;;7.47;5.60;;;;;;;4.37;52.38;102262.53;680568;29;1019;-81
2023/01/28 01:00:45;;;;;;;6.25;5.65;;;;;;;4.45;52.53;102272.59;688646;28;1067;-82
2023/01/28 01:01:11;;;;;;;6.25;5.65;;;;;;;4.38;52.50;102259.16;682994;29;1107;-82
2023/01/28 01:01:33;;;;;;;5.63;5.13;;;;;;;4.38;52.41;102260.88;685890;28;1356;-82
2023/01/28 01:02:11;;;;;;;5.28;4.85;;;;;;;4.42;52.20;102259.44;691269;28;1258;-82
2023/01/28 01:02:32;;;;;;;5.70;5.10;;;;;;;4.37;52.36;102253.91;691336;28;1041;-81
2023/01/28 01:02:53;;;;;;;6.18;5.57;;;;;;;4.40;52.46;102255.84;688709;28;809;-82
2023/01/28 01:03:13;;;;;;;6.10;5.50;;;;;;;4.40;52.55;102251.53;683015;29;1914;-82
2023/01/28 01:03:34;;;;;;;5.82;5.32;;;;;;;4.35;52.21;102248.59;683298;29;1006;-81
2023/01/28 01:04:01;;;;;;;5.60;5.10;;;;;;;4.42;52.20;102262.00;683430;29;899;-82
2023/01/28 01:04:25;;;;;;;5.80;5.00;;;;;;;4.41;52.38;102253.34;688679;28;2111;-81
2023/01/28 01:04:57;;;;;;;6.22;5.20;;;;;;;4.38;52.54;102256.59;691294;28;1465;-81
2023/01/28 01:05:17;;;;;;;5.85;5.20;;;;;;;4.40;52.30;102254.13;694068;28;827;-81
2023/01/28 01:05:38;;;;;;;6.70;5.40;;;;;;;4.42;52.24;102254.25;685812;28;1164;-81
2023/01/28 01:06:02;;;;;;;7.55;5.70;;;;;;;4.41;52.16;102255.94;688511;28;1104;-81
2023/01/28 01:06:23;;;;;;;7.30;5.53;;;;;;;4.38;52.54;102253.13;683275;28;1062;-82
2023/01/28 01:06:44;;;;;;;6.57;5.57;;;;;;;4.38;52.31;102250.53;683020;28;1219;-82
2023/01/28 01:07:05;;;;;;;6.00;5.40;;;;;;;4.44;52.49;102263.94;688508;28;1345;-82
2023/01/28 01:07:40;;;;;;;6.35;5.72;;;;;;;4.37;52.25;102249.63;685796;28;1360;-81
2023/01/28 01:08:01;;;;;;;7.10;6.40;;;;;;;4.41;52.59;102255.03;683124;28;1093;-82
2023/01/28 01:08:33;;;;;;;7.57;6.40;;;;;;;4.35;52.38;102246.03;683196;28;1176;-82
2023/01/28 01:08:54;;;;;;;6.30;5.53;;;;;;;4.38;52.33;102261.75;685830;28;847;-82
2023/01/28 01:09:14;;;;;;;6.00;5.37;;;;;;;4.34;52.60;102246.81;688440;28;1047;-82
2023/01/28 01:09:35;;;;;;;6.10;5.50;;;;;;;4.38;52.51;102251.41;688524;28;1234;-82
2023/01/28 01:09:59;;;;;;;7.40;5.90;;;;;;;4.39;52.75;102252.34;688641;28;859;-82
2023/01/28 01:10:20;;;;;;;7.15;5.65;;;;;;;4.38;52.50;102250.53;691238;28;1525;-82
2023/01/28 01:10:42;;;;;;;8.40;5.80;;;;;;;4.33;52.58;102247.59;688488;28;1237;-81
2023/01/28 01:11:03;;;;;;;8.23;5.60;;;;;;;4.40;52.67;102253.25;691135;28;1125;-81
2023/01/28 01:11:25;;;;;;;7.47;5.57;;;;;;;4.43;52.38;102266.41;685858;28;820;-81
2023/01/28 01:11:46;;;;;;;5.97;5.40;;;;;;;4.35;52.56;102251.19;685928;28;909;-81
2023/01/28 01:12:07;;;;;;;5.80;5.30;;;;;;;4.44;52.49;102260.44;688533;28;1142;-82
2023/01/28 01:12:28;;;;;;;5.90;5.30;;;;;;;4.33;52.75;102250.19;685756;28;1342;-82
2023/01/28 01:12:49;;;;;;;6.45;5.32;;;;;;;4.34;52.66;102249.41;688590;28;1202;-82
2023/01/28 01:13:10;;;;;;;6.75;5.68;;;;;;;4.33;52.76;102247.59;685702;28;1208;-82
2023/01/28 01:13:33;;;;;;;6.53;5.75;;;;;;;4.35;52.42;102248.59;688518;28;1231;-81
2023/01/28 01:13:56;;;;;;;7.13;5.88;;;;;;;4.37;52.70;102246.16;685833;28;2009;-82
2023/01/28 01:14:18;;;;;;;7.20;5.75;;;;;;;4.38;52.82;102256.59;685794;28;1907;-82
2023/01/28 01:14:38;;;;;;;6.15;5.50;;;;;;;4.38;52.42;102255.69;688635;28;958;-82
2023/01/28 01:14:59;;;;;;;5.73;5.23;;;;;;;4.35;52.46;102246.03;693892;28;1275;-81
2023/01/28 01:15:19;;;;;;;6.18;5.35;;;;;;;4.38;52.46;102256.59;685878;28;1037;-82
2023/01/28 01:15:40;;;;;;;6.65;5.80;;;;;;;4.34;52.59;102246.81;685885;28;1009;-82
2023/01/28 01:16:07;;;;;;;7.30;6.00;;;;;;;4.39;52.60;102254.91;685880;28;1143;-81
2023/01/28 01:16:32;;;;;;;6.60;5.90;;;;;;;4.42;52.58;102262.00;685903;28;1512;-82
2023/01/28 01:16:52;;;;;;;6.75;5.70;;;;;;;4.43;52.70;102258.63;688225;28;1236;-81
2023/01/28 01:17:13;;;;;;;6.65;5.70;;;;;;;4.37;52.40;102249.63;688459;28;1122;-81
2023/01/28 01:17:36;;;;;;;7.93;5.90;;;;;;;4.34;52.52;102249.41;688481;28;1103;-82
2023/01/28 01:18:00;;;;;;;9.25;6.20;;;;;;;4.37;52.62;102248.72;688501;28;1012;-82
2023/01/28 01:18:20;;;;;;;7.90;6.30;;;;;;;4.38;52.38;102255.69;688686;28;1092;-82
2023/01/28 01:18:41;;;;;;;8.00;6.30;;;;;;;4.41;52.57;102257.63;685837;28;1096;-82
2023/01/28 01:19:04;;;;;;;7.63;6.40;;;;;;;4.38;52.67;102256.59;685603;28;1386;-82
2023/01/28 01:19:27;;;;;;;8.63;6.40;;;;;;;4.36;52.61;102258.16;688533;28;1134;-82
2023/01/28 01:19:48;;;;;;;8.23;6.50;;;;;;;4.38;52.22;102256.59;683217;28;1386;-82
2023/01/28 01:20:20;;;;;;;6.93;6.22;;;;;;;4.37;52.60;102259.97;683069;29;1056;-82
2023/01/28 01:20:44;;;;;;;6.70;5.50;;;;;;;4.33;52.58;102246.69;685887;28;1081;-82
2023/01/28 01:21:08;;;;;;;6.63;5.35;;;;;;;4.36;52.79;102263.31;691070;28;1166;-82
2023/01/28 01:21:29;;;;;;;6.40;5.70;;;;;;;4.31;52.70;102249.16;691229;28;1027;-82
2023/01/28 01:21:50;;;;;;;6.40;5.80;;;;;;;4.40;52.63;102263.59;688658;28;768;-82
2023/01/28 01:22:11;;;;;;;6.60;5.90;;;;;;;4.35;52.95;102250.31;685701;28;1284;-82
2023/01/28 01:22:34;;;;;;;6.20;5.60;;;;;;;4.38;52.67;102258.28;688507;28;1339;-82
2023/01/28 01:22:56;;;;;;;5.80;5.30;;;;;;;4.37;52.73;102261.66;688595;28;843;-82
2023/01/28 01:23:16;;;;;;;5.73;5.23;;;;;;;4.32;52.55;102252.63;688371;28;1911;-82
2023/01/28 01:23:37;;;;;;;5.80;5.30;;;;;;;4.34;52.63;102259.72;688255;28;1081;-82
2023/01/28 01:23:58;;;;;;;5.60;5.10;;;;;;;4.32;52.92;102256.13;683111;28;1215;-82
2023/01/28 01:24:18;;;;;;;5.40;4.90;;;;;;;4.29;52.77;102255.00;685802;28;1214;-82
2023/01/28 01:24:39;;;;;;;5.30;4.80;;;;;;;4.34;52.71;102258.81;683184;28;1041;-82
2023/01/28 01:25:00;;;;;;;5.50;5.00;;;;;;;4.33;52.60;102257.94;688564;28;1036;-82
2023/01/28 01:25:21;;;;;;;5.60;5.10;;;;;;;4.36;52.52;102262.44;685744;28;1530;-82
2023/01/28 01:25:42;;;;;;;5.75;5.25;;;;;;;4.35;52.33;102266.69;685722;28;1458;-82
2023/01/28 01:26:04;;;;;;;5.90;5.40;;;;;;;4.36;52.12;102265.91;688394;28;1094;-82
2023/01/28 01:26:26;;;;;;;5.80;5.30;;;;;;;4.33;52.52;102251.84;691239;28;1875;-82
2023/01/28 01:26:47;;;;;;;6.18;5.57;;;;;;;4.35;52.55;102250.31;688438;28;874;-82
2023/01/28 01:27:07;;;;;;;5.90;5.40;;;;;;;4.33;52.18;102257.03;685584;28;1047;-81
2023/01/28 01:27:28;;;;;;;5.97;5.38;;;;;;;4.34;52.46;102257.16;688470;28;1220;-81
2023/01/28 01:27:49;;;;;;;5.85;5.25;;;;;;;4.37;52.33;102261.66;688607;28;900;-82
2023/01/28 01:28:22;;;;;;;6.10;5.30;;;;;;;4.31;52.37;102248.25;688538;28;1157;-82
2023/01/28 01:28:43;;;;;;;6.10;5.50;;;;;;;4.34;52.47;102256.22;688428;28;1127;-81
2023/01/28 01:29:03;;;;;;;6.00;5.50;;;;;;;4.34;52.55;102259.72;683066;28;1195;-82
2023/01/28 01:29:24;;;;;;;6.10;5.50;;;;;;;4.34;52.71;102258.81;683193;29;897;-82
2023/01/28 01:29:44;;;;;;;6.00;5.40;;;;;;;4.36;52.45;102253.00;683127;28;1076;-82
2023/01/28 01:30:07;;;;;;;5.90;5.40;;;;;;;4.37;52.37;102264.25;685717;28;1144;-82
2023/01/28 01:30:27;;;;;;;5.60;5.10;;;;;;;4.42;52.79;102267.19;683029;29;1044;-82
2023/01/28 01:30:48;;;;;;;5.40;4.90;;;;;;;4.38;52.33;102254.00;683208;29;1016;-82
2023/01/28 01:31:14;;;;;;;5.65;5.15;;;;;;;4.42;52.55;102267.19;691074;28;1252;-82
2023/01/28 01:31:35;;;;;;;5.95;5.45;;;;;;;4.42;52.46;102267.19;688371;28;1280;-82
2023/01/28 01:31:56;;;;;;;6.25;5.65;;;;;;;4.48;52.67;102278.88;685795;28;1082;-81
2023/01/28 01:32:17;;;;;;;6.78;5.53;;;;;;;4.36;52.43;102258.16;685702;28;1057;-81
2023/01/28 01:32:37;;;;;;;7.30;5.22;;;;;;;4.33;52.70;102255.34;683082;28;1130;-82
2023/01/28 01:32:58;;;;;;;8.23;5.35;;;;;;;4.33;52.72;102252.75;691133;28;1203;-81
2023/01/28 01:33:19;;;;;;;6.82;5.30;;;;;;;4.33;52.63;102257.94;688434;28;1097;-82
2023/01/28 01:33:46;;;;;;;6.90;5.60;;;;;;;4.33;52.50;102257.03;683225;29;1219;-82
2023/01/28 01:34:08;;;;;;;6.05;5.45;;;;;;;4.36;52.63;102259.88;685611;28;946;-82
2023/01/28 01:34:29;;;;;;;5.60;5.10;;;;;;;4.38;52.73;102263.47;685639;28;1393;-81
2023/01/28 01:34:49;;;;;;;6.33;5.27;;;;;;;4.35;52.62;102256.38;685768;28;1036;-82
2023/01/28 01:35:10;;;;;;;7.10;5.50;;;;;;;4.37;52.73;102261.66;688494;28;1056;-81
2023/01/28 01:35:33;;;;;;;7.30;5.55;;;;;;;4.36;52.59;102258.16;688409;28;980;-81
2023/01/28 01:35:54;;;;;;;6.40;5.50;;;;;;;4.36;52.43;102260.75;685933;28;1343;-82
2023/01/28 01:36:17;;;;;;;6.18;5.57;;;;;;;4.34;52.44;102259.72;685567;28;1129;-83
2023/01/28 01:36:38;;;;;;;6.53;5.63;;;;;;;4.36;52.69;102260.75;688575;28;1123;-82
2023/01/28 01:36:58;;;;;;;7.00;5.38;;;;;;;4.33;52.48;102260.53;685623;28;1141;-82
2023/01/28 01:37:19;;;;;;;7.15;5.10;;;;;;;4.33;52.64;102255.34;688455;28;1474;-81
2023/01/28 01:37:43;;;;;;;6.47;5.18;;;;;;;4.37;52.65;102269.41;685737;28;1319;-82
2023/01/28 01:38:04;;;;;;;7.32;5.40;;;;;;;4.38;52.46;102266.94;691024;28;1863;-82
2023/01/28 01:38:26;;;;;;;6.85;5.47;;;;;;;4.44;52.50;102281.13;683217;29;801;-82
2023/01/28 01:38:47;;;;;;;7.72;5.82;;;;;;;4.32;52.58;102255.22;683291;29;836;-82
2023/01/28 01:39:11;;;;;;;6.65;5.80;;;;;;;4.36;52.42;102265.03;685700;28;961;-82
2023/01/28 01:39:32;;;;;;;5.90;5.40;;;;;;;4.37;52.75;102267.72;688535;28;1036;-81
2023/01/28 01:39:53;;;;;;;6.35;5.43;;;;;;;4.36;52.47;102265.91;688615;28;966;-82
2023/01/28 01:40:14;;;;;;;6.90;5.43;;;;;;;4.29;52.53;102260.16;685644;28;1050;-81
2023/01/28 01:40:35;;;;;;;7.45;5.75;;;;;;;4.32;52.57;102271.66;683067;29;1200;-82
2023/01/28 01:41:00;;;;;;;6.30;5.70;;;;;;;4.32;52.74;102266.47;683144;28;1162;-81
2023/01/28 01:41:28;;;;;;;6.32;5.72;;;;;;;4.28;52.52;102264.41;685761;28;1011;-82
2023/01/28 01:41:49;;;;;;;5.97;5.47;;;;;;;4.26;52.51;102260.81;688555;28;903;-81
2023/01/28 01:42:11;;;;;;;5.75;5.25;;;;;;;4.33;52.78;102270.84;683036;28;1183;-82
2023/01/28 01:42:32;;;;;;;6.03;5.43;;;;;;;4.38;52.41;102279.84;690323;28;1384;-81
2023/01/28 01:42:53;;;;;;;5.78;5.28;;;;;;;4.28;52.65;102253.19;688564;28;1263;-82
2023/01/28 01:43:16;;;;;;;5.63;5.13;;;;;;;4.33;52.39;102278.63;685521;28;1960;-82
2023/01/28 01:43:56;;;;;;;5.70;5.20;;;;;;;4.32;52.38;102279.41;685731;28;1417;-81
2023/01/28 01:44:54;;;;;;;5.80;5.30;;;;;;;4.35;52.52;102282.22;688246;28;996;-82
2023/01/28 01:45:16;;;;;;;5.60;5.10;;;;;;;4.34;52.61;102283.00;685629;28;1092;-81
2023/01/28 01:45:37;;;;;;;5.78;5.28;;;;;;;4.31;52.42;102277.59;688738;28;1119;-81
2023/01/28 01:46:00;;;;;;;5.90;5.40;;;;;;;4.26;52.60;102271.16;688590;28;1154;-81
2023/01/28 01:46:44;;;;;;;6.30;5.70;;;;;;;4.35;52.54;102292.56;685864;28;1238;-82
2023/01/28 01:47:05;;;;;;;6.40;5.80;;;;;;;4.30;52.56;102273.19;685651;28;1016;-82
2023/01/28 01:47:57;;;;;;;6.82;6.18;;;;;;;4.29;52.36;102271.38;685920;28;835;-81
2023/01/28 01:48:23;;;;;;;13.50;7.60;;;;;;;4.32;52.19;102281.97;682866;28;1297;-82